• Join FlightAware (Why Join?)
  • Login
  • US Flag 
11:36PM EDT


 

Airport Tracker/Info


-or-


 

Live Flight TrackerFlight Track Log ✈ SWA862 ✈ 11-Apr-2013 ✈ KRDU - KBWI

Flight Track Log - Related Links

Times and Time Zones

All times are in EDT time to prevent confusion due to time zone crossing. See the SWA862 flight status page for this flight to view local times or setup timezone preferences in your user account.

Time Position Orientation Groundspeed Altitude Reporting Facility
EDT Latitude Longitude Course Direction KTS MPH feet Rate Location/Type
08:32PM 35.8294 -78.8739 243° Southwest 231 266 3,000  Level Washington Center
08:32PM 35.8319 -78.9303 273° West 283 326 5,100 3,300 Climbing Washington Center
08:33PM 35.9003 -78.9511 346° North 219 252 8,500 2,760 Climbing Washington Center
08:34PM 35.9753 -78.8850 35° Northeast 213 245 10,700 2,280 Climbing Washington Center
08:35PM 36.0508 -78.7853 47° Northeast 293 337 13,100 2,760 Climbing Washington Center
08:36PM 36.1286 -78.6831 47° Northeast 344 396 16,300 3,480 Climbing Washington Center
08:37PM 36.2128 -78.5783 45° Northeast 387 445 20,100 3,300 Climbing Washington Center
08:38PM 36.2903 -78.4756 47° Northeast 406 467 23,000 1,440 Climbing Washington Center
08:39PM 36.3786 -78.3628 46° Northeast 426 490 23,000  Level Washington Center
08:40PM 36.4711 -78.2419 46° Northeast 451 519 23,000  Level Washington Center
08:41PM 36.5775 -78.1369 38° Northeast 472 543 23,000  Level Washington Center
08:42PM 36.6961 -78.0606 27° Northeast 477 549 23,000  Level Washington Center
08:43PM 36.8183 -77.9919 24° Northeast 477 549 23,000  Level Washington Center
08:44PM 36.9367 -77.9175 27° Northeast 477 549 23,000  Level Washington Center
08:45PM 37.0572 -77.8406 27° Northeast 472 543 23,000  Level Washington Center
08:46PM 37.1775 -77.7683 26° Northeast 472 543 23,000  Level Washington Center
08:47PM 37.2975 -77.6936 26° Northeast 472 543 23,000  Level Washington Center
08:48PM 37.4178 -77.6183 26° Northeast 472 543 23,000  Level Washington Center
08:49PM 37.5400 -77.5431 26° Northeast 472 543 23,000  Level Washington Center
08:50PM 37.6558 -77.4700 27° Northeast 472 543 23,000  Level Washington Center
08:51PM 37.7781 -77.3967 25° Northeast 467 537 23,000  Level Washington Center
08:52PM 37.9039 -77.3444 18° North 467 537 23,000 -240 Level Washington Center
08:53PM 38.0319 -77.2894 19° North 473 544 22,600 -1,680 Descending Washington Center
08:54PM 38.1536 -77.2369 19° North 467 537 19,700 -3,000 Descending Washington Center
08:55PM 38.2753 -77.1867 18° North 462 532 16,600 -2,940 Descending Washington Center
08:56PM 38.3806 -77.1147 28° Northeast 444 511 13,900 -2,460 Descending Washington Center
08:57PM 38.4569 -77.0022 49° Northeast 421 484 11,700 -1,560 Descending Washington Center
08:58PM 38.5308 -76.9028 46° Northeast 400 460 10,800 -900 Descending Washington Center
08:59PM 38.5922 -76.8161 48° Northeast 360 414 10,000 -1,200 Descending Washington Center
09:00PM 38.6494 -76.7347 48° Northeast 324 373 8,500 -1,440 Descending Washington Center
09:01PM 38.7086 -76.6558 46° Northeast 311 358 7,200 -1,320 Descending Washington Center
09:02PM 38.7500 -76.5833 54° Northeast 297 342 6,200 -720 Descending Potomac TRACON
09:03PM 38.8167 -76.5333 30° Northeast 291 335 6,000 -480 Descending Potomac TRACON
09:04PM 38.8833 -76.5500 349° North 287 330 5,300 -540 Descending Potomac TRACON
09:05PM 38.9667 -76.5833 343° North 277 319 5,000 -300 Descending Potomac TRACON
09:06PM 39.0000 -76.6500 303° West 203 234 4,700 -540 Descending Potomac TRACON
09:07PM 39.0167 -76.7167 288° West 188 216 4,000 -780 Descending Potomac TRACON
09:08PM 39.0500 -76.7667 311° West 192 221 3,200 -960 Descending Potomac TRACON
09:09PM 39.0833 -76.8333 303° West 197 227 2,000 -600 Descending Potomac TRACON
09:10PM 39.1000 -76.9000 288° West 201 231 2,000  Level Potomac TRACON
09:11PM 39.1167 -76.9667 288° West 204 235 2,000  Level Potomac TRACON
09:12PM 39.1500 -77.0000 322° Northwest 204 235 2,000  Level Potomac TRACON
09:13PM 39.1833 -76.9833 21° North 178 205 2,000  Level Potomac TRACON
09:14PM 39.1833 -76.9167 90° East 157 181 2,000  Level Potomac TRACON
09:15PM 39.1833 -76.8667 90° East 159 183 2,000  Level Potomac TRACON
09:16PM 39.1833 -76.8167 90° East 160 184 2,000 -360 Level Potomac TRACON
09:17PM 39.1833 -76.7667 90° East 121 139 1,300 -720 Descending Potomac TRACON
09:18PM 39.1833 -76.7167 90° East 125 144 600 -720 Descending Potomac TRACON